Vue régionale

METAR et TAF

Samedi 16 novembre 2019 à 02h25

Visibilités horizontales observées à différents aéroports. Les observations (METAR) et prévisions aéronautiques (TAF) complètes sont disponibles en cliquant sur l’icône correspondante.

  • Luxemburg (ELLX)

    Taf: TAF AMD ELLX 152300Z 1600/1706 18006KT 9999 SCT015 BECMG 1523/1603 3000 BR PROB40 TEMPO 1603/1610 0800 FZFG VV001 BECMG 1610/1613 17005KT 7000 BECMG 1620/1623 06005KT 3000 BR TEMPO 1700/1706 1500 BKN003=

    Metar: METAR ELLX 160050Z AUTO 07003KT 9999 NCD 00/M01 Q1004 NOSIG=

  • Spangdahlem (ETAD)

    Taf: TAF ETAD 152055Z 1521/1703 VRB06KT 9999 OVC020 QNH2961INS BECMG 1600/1601 19006KT 9999 SCT020 QNH2958INS BECMG 1605/1606 VRB06KT 6000 BR SKC QNH2965INS BECMG 1609/1610 18007KT 9999 NSW SCT014 BKN160 QNH2978INS BECMG 1612/1613 21009KT 9999 SCT015 QNH2980INS BECMG 1615/1616 16006KT 9999 SKC QNH2983INS TX05/1614Z TNM01/1604Z LAST NO AMDS AFT 1521=

    Metar: nil

  • Metz/Nancy (LFJL)

    Taf: TAF LFJL 152300Z 1600/1624 12010KT CAVOK PROB30 TEMPO 1600/1608 1500 BCFG=

    Metar: nil

  • Saarbrücken/Intl (EDDR)

    Taf: TAF EDDR 152300Z 1600/1624 VRB03KT 9999 SCT020 TEMPO 1600/1611 3000 BR PROB40 TEMPO 1600/1610 0500 FG BKN001 BECMG 1609/1612 16005KT BECMG 1616/1619 07005KT BECMG 1622/1624 2500 BR=

    Metar: nil

  • Hahn (EDFH)

    Taf: TAF EDFH 152300Z 1600/1624 20005KT 9999 BKN015 TEMPO 1600/1609 4000 BR BKN008 BECMG 1615/1618 14008KT=

    Metar: nil

  • Ramstein (ETAR)

    Taf: TAF ETAR 151800Z 1518/1624 VRB06KT 9999 BKN025 QNH2962INS BECMG 1520/1521 VRB06KT 9999 FEW015 QNH2964INS BECMG 1600/1601 VRB06KT 6000 BR SCT008 QNH2967INS TEMPO 1603/1607 3200 BR BECMG 1608/1609 VRB06KT 9999 NSW FEW015 SCT060 QNH2976INS BECMG 1620/1621 VRB06KT 8000 BR BKN008 QNH2985INS TX05/1614Z TN00/1606Z=

    Metar: nil

  • Nancy/Ochey (LFSO)

    Taf: TAF LFSO 152000Z NIL=

    Metar: nil

  • Liège Bierset (EBLG)

    Taf: TAF EBLG 152316Z 1600/1706 15005KT 9999 FEW020 TEMPO 1702/1706 3000 BR PROB30 TEMPO 1704/1706 0500 FZFG=

    Metar: nil

  • Saint-Dizier (LFSI)

    Taf: TAF LFSI 152000Z 1521/1621 16010KT 9999 BKN025 TEMPO 1604/1608 4000 BR=

    Metar: nil

  • Maastricht/Zuid Limburg (EHBK)

    Taf: TAF COR EHBK 152331Z 1600/1706 13005KT CAVOK PROB30 1602/1609 6000 BECMG 1622/1701 6000 MIFG PROB40 TEMPO 1702/1706 0400 BCFG=

    Metar: nil

  • Köln/Köln-Bonn (EDDK)

    Taf: TAF EDDK 152300Z 1600/1706 13005KT 9999 BKN025=

    Metar: METAR EDDK 160050Z 12001KT 9999 SCT026 03/02 Q1005 NOSIG=

  • Charleroi (EBCI)

    Taf: TAF EBCI 152316Z 1600/1706 13005KT 9999 FEW020 PROB30 TEMPO 1604/1607 BKN008 TEMPO 1702/1706 3000 BR PROB30 TEMPO 1704/1706 0500 FZFG=

    Metar: nil

  • Wiesbaden (ETOU)

    Taf: TAF AMD ETOU 151728Z 1517/1618 VRB06KT 9999 SCT080 QNH2954INS BECMG 1612/1613 20009KT 9999 BKN060 620604 QNH2979INS BECMG 1614/1615 19009KT 8000 -RA BKN050 620505 QNH2980INS TX07/1614Z TN00/1604Z LAST NO AMDS AFT 1520=

    Metar: nil

  • Karlsruhe/Baden-Baden (EDSB)

    Taf: TAF AMD EDSB 160112Z 1601/1618 CNL=

    Metar: nil

  • Chalons/Vatry (LFOK)

    Taf: TAF LFOK 152300Z 1600/1624 13008KT 9999 BKN020 TEMPO 1609/1612 BKN013 BECMG 1622/1624 3000 BR=

    Metar: nil

  • Frankfurt/Main (EDDF)

    Taf: TAF EDDF 152300Z 1600/1706 VRB03KT 9999 FEW025 TEMPO 1609/1617 20005KT TEMPO 1621/1706 05005KT PROB30 TEMPO 1700/1706 2500 BCFG=

    Metar: METAR EDDF 160050Z 19003KT 9999 FEW027 BKN035 04/03 Q1004 NOSIG=

  • Brüssel (EBBR)

    Taf: TAF EBBR 152316Z 1600/1706 14005KT 9999 FEW020 PROB40 TEMPO 1702/1706 3500 BR=

    Metar: METAR EBBR 160050Z 13005KT CAVOK 02/00 Q1004 NOSIG=

  • Düsseldorf (EDDL)

    Taf: TAF EDDL 152300Z 1600/1706 17005KT 9999 BKN025=

    Metar: nil

  • Luxeuil (LFSX)

    Taf: TAF LFSX 152000Z NIL=

    Metar: nil

  • Eindhoven (EHEH)

    Taf: TAF EHEH 152300Z NIL=

    Metar: nil

  • Niederrhein (EDLV)

    Taf: TAF AMD EDLV 152350Z 1523/1618 CNL=

    Metar: nil

  • Dortmund/Wickede (EDLW)

    Taf: TAF EDLW 152300Z NIL=

    Metar: nil

  • Stuttgart/Echterdingen (EDDS)

    Taf: TAF EDDS 152300Z 1600/1624 VRB03KT 9999 BKN035 PROB30 TEMPO 1600/1603 4500 -RA PROB30 TEMPO 1605/1609 1500 BCFG BKN002=

    Metar: METAR EDDS 160050Z 27002KT 9000 -RA SCT035 03/03 Q1003=

  • Basel-Mühlhausen (LFSB)

    Taf: TAF LFSB 152300Z 1600/1624 VRB02KT 7000 NSC TEMPO 1600/1605 3000 BR PROB40 TEMPO 1605/1609 4000 -RA BKN015 BKN025 BECMG 1609/1611 CAVOK PROB40 TEMPO 1622/1624 4000 BR=

    Metar: METAR LFSB 160100Z AUTO 26003KT 5000 BR FEW005/// BKN250/// M01/M01 Q1004 NOSIG=

  • Lille (LFQQ)

    Taf: TAF LFQQ 152300Z 1600/1706 12010KT 9999 OVC016 BECMG 1609/1611 18008KT BKN008 BECMG 1612/1614 BKN013 BECMG 1614/1616 BKN020 BECMG 1622/1624 2000 BR BECMG 1700/1703 0200 FG VV///=

    Metar: nil

  • Paris/Charles de Gaulle (LFPG)

    Taf: TAF AMD LFPG 160053Z 1600/1706 16010KT 9999 BKN008 TX07/1614Z TN01/1706Z PROB40 TEMPO 1603/1608 3000 -RA BKN004 BECMG 1612/1615 BKN015 BECMG 1621/1623 09004KT PROB30 1700/1706 4000 BR=

    Metar: nil

  • Paderborn/Lippstadt (EDLP)

    Taf: TAF EDLP 152300Z 1600/1624 25004KT CAVOK TEMPO 1603/1610 3000 -RA BR BKN008 BECMG 1613/1616 17007KT=

    Metar: nil

  • Paris/Le Bourget (LFPB)

    Taf: TAF AMD LFPB 160056Z 1600/1624 16010KT 9999 BKN011 PROB40 TEMPO 1600/1612 3000 -RA BKN007 BECMG 1612/1615 BKN018 BECMG 1621/1623 09004KT=

    Metar: METAR LFPB 160100Z AUTO 14010KT 9999 BKN010 OVC015 04/03 Q1001 TEMPO 3000 -RA=

  • Rotterdam (EHRD)

    Taf: TAF EHRD 152257Z 1600/1706 14003KT CAVOK BECMG 1601/1604 7000 PROB30 1603/1607 2500 BCFG BECMG 1608/1611 20008KT 9999 NSW BECMG 1700/1703 7000 BECMG 1703/1706 4000 BR PROB40 TEMPO 1704/1706 2000 BCFG=

    Metar: nil

  • Zürich/Kloten (LSZH)

    Taf: TAF LSZH 152325Z 1600/1706 35002KT 9999 FEW040 BKN150 TX06/1613Z TN01/1606Z TN01/1702Z BECMG 1600/1603 4000 BR SCT015 PROB40 1604/1607 1500 BCFG BKN005 BECMG 1609/1612 CAVOK BECMG 1618/1621 BKN014 TEMPO 1703/1706 RA=

    Metar: METAR LSZH 160050Z 33001KT 5000 BR FEW030 00/M00 Q1003 BECMG 4000=

  • Oostende/Intl (EBOS)

    Taf: TAF EBOS 152316Z 1600/1706 11006KT 9999 FEW020 TEMPO 1612/1616 BKN012 PROB40 TEMPO 1702/1706 4000 BR=

    Metar: nil

  • Paris/Orly (LFPO)

    Taf: TAF LFPO 152300Z 1600/1706 16008KT 7000 BKN011 TEMPO 1600/1608 3000 -RA BKN009 BECMG 1608/1610 BKN016 TEMPO 1608/1613 BKN012 BECMG 1610/1613 BKN025 BECMG 1618/1621 09005KT TEMPO 1700/1706 VRB02KT 2000 BR=

    Metar: nil

  • Beauvais (LFOB)

    Taf: TAF LFOB 152300Z 1600/1624 14005KT 6000 OVC007 TEMPO 1600/1602 3000 RASN OVC003 TEMPO 1602/1610 4000 DZ OVC004 BECMG 1613/1615 OVC013 BECMG 1615/1617 BKN020 BECMG 1617/1619 3000 BR BECMG 1621/1624 0200 FG VV///=

    Metar: nil

  • Münster/Intl (EDDG)

    Taf: TAF EDDG 152300Z 1600/1624 VRB02KT 2500 BCFG NSC TEMPO 1600/1608 4500 BR BECMG 1608/1611 22007KT CAVOK BECMG 1618/1621 VRB03KT=

    Metar: METAR EDDG 160050Z VRB02KT 3500 BR BKN029 03/02 Q1005 TEMPO 6000=

  • Illesheim (ETIK)

    Taf: TAF AMD ETIK 151607Z 1516/1621 30006KT 9999 BKN090 620902 QNH2959INS BECMG 1519/1520 26006KT 5000 -SHRA FEW004 BKN008 610505 QNH2966INS BECMG 1603/1604 14006KT 1000 BR BKN040 QNH2967INS BECMG 1610/1611 20006KT 9999 NSW SCT010 BKN020 QNH2979INS BECMG 1619/1620 VRB06KT 8000 BR OVC010 QNH2989INS TX06/1515Z TN02/1606Z LAST NO AMDS AFT 15/1730Z NEXT 17/23Z=

    Metar: nil

  • Duebendorf (LSMD)

    Taf: TAF LSMD 151625Z 1517/1623 VRB02KT CAVOK BECMG 1517/1520 8000 SCT100 BECMG 1600/1603 4000 BR BKN010 PROB30 1602/1608 2500 BCFG BECMG 1609/1612 8000 SCT013 TEMPO 1610/1615 CAVOK PROB30 1621/1623 BKN015=

    Metar: nil

  • Villacoublay (LFPV)

    Taf: TAF LFPV 152000Z 1521/1621 17008KT 8000 -RA OVC002 TEMPO 1521/1609 -RA OVC002 BECMG 1611/1613 OVC015 PROB40 TEMPO 1615/1621 -SHRA BKN020TCU=

    Metar: nil

  • Payerne (LSMP)

    Taf: TAF LSMP 151625Z 1517/1623 VRB03KT 9999 SCT040=

    Metar: nil

  • Amsterdam/Schipol (EHAM)

    Taf: TAF EHAM 152259Z 1600/1706 14003KT CAVOK BECMG 1601/1604 5000 BR MIFG FEW025 PROB30 1603/1607 2500 BCFG MIFG BECMG 1608/1611 20008KT 9999 NSW BECMG 1700/1703 7000 BECMG 1703/1706 4000 BR PROB40 TEMPO 1704/1706 2000 BCFG=

    Metar: METAR EHAM 160055Z 10003KT 8000 NSC 03/03 Q1005 TEMPO 7000=

  • Emmen (LSME)

    Taf: TAF LSME 151625Z 1517/1623 VRB02KT CAVOK BECMG 1517/1520 8000 FEW040 SCT100 BECMG 1523/1602 4000 BR BKN010 PROB40 1602/1608 2500 PRFG BECMG 1609/1612 8000 SCT013 TEMPO 1610/1615 CAVOK=

    Metar: nil

  • Friedrichshafen (EDNY)

    Taf: TAF EDNY 152300Z 1600/1624 VRB03KT 9999 FEW009 BKN030 TEMPO 1600/1610 BKN009 BECMG 1615/1617 03005KT=

    Metar: nil

  • Alpnach (LSMA)

    Taf: TAF LSMA 151625Z 1517/1623 VRB02KT CAVOK BECMG 1517/1520 9000 FEW040 SCT130 PROB40 1600/1608 4000 BR BKN014 TEMPO 1610/1615 CAVOK=

    Metar: nil

  • Meiringen (LSMM)

    Taf: TAF LSMM 151625Z 1517/1623 02004KT 9999 SCT017 OVC027 PROB40 1600/1609 4000 MIFG BKN010 TEMPO 1610/1615 CAVOK=

    Metar: nil

  • Nürnberg (EDDN)

    Taf: TAF AMD EDDN 160037Z 1600/1624 30006KT 9999 SCT008 BKN040 TEMPO 1600/1610 BKN008 BECMG 1607/1609 24005KT BECMG 1615/1617 VRB03KT=

    Metar: METAR EDDN 160050Z 28007KT 9000 BKN008 04/03 Q1003=

  • Rouen (LFOP)

    Taf: TAF LFOP 152300Z NIL=

    Metar: nil

  • Evreux (LFOE)

    Taf: TAF LFOE 151731Z 1517/1615 CNL=

    Metar: nil

  • Erfurt/Bindersleben (EDDE)

    Taf: TAF EDDE 152300Z 1600/1624 27009KT 6000 BKN020 TEMPO 1600/1607 2000 -RA BR BKN006 BECMG 1613/1615 21005KT=

    Metar: nil